Time;durP1;ratioP1;P1;durP2;ratioP2;P2;SDS_P1;SDS_P2;PMS_P1;PMS_P2;Temp;Humidity;BMP_temperature;BMP_pressure;BME280_temperature;BME280_humidity;BME280_pressure;Samples;Min_cycle;Max_cycle;Signal;HPM_P1;HPM_P2
2022/12/02 00:02:31;;;;;;;15.95;9.65;;;19.70;58.60;;;;;;4976188;28;20053;-59
2022/12/02 00:04:59;;;;;;;14.38;9.30;;;19.70;58.40;;;;;;4974500;28;20047;-59
2022/12/02 00:07:24;;;;;;;15.52;9.70;;;19.70;58.60;;;;;;4974807;28;20051;-59
2022/12/02 00:09:50;;;;;;;14.48;8.85;;;19.70;58.60;;;;;;4975557;28;20794;-59
2022/12/02 00:12:19;;;;;;;16.25;10.10;;;19.70;58.50;;;;;;4974482;28;20045;-60
2022/12/02 00:14:45;;;;;;;16.05;9.63;;;19.70;58.50;;;;;;4976265;28;20050;-59
2022/12/02 00:17:10;;;;;;;14.13;8.98;;;19.70;58.50;;;;;;4973798;28;20051;-59
2022/12/02 00:19:36;;;;;;;15.80;9.90;;;19.60;58.40;;;;;;4975905;28;20039;-59
2022/12/02 00:22:01;;;;;;;15.30;9.30;;;19.70;58.40;;;;;;4975969;28;20051;-59
2022/12/02 00:24:27;;;;;;;15.52;9.02;;;19.60;58.30;;;;;;4974728;28;20093;-59
2022/12/02 00:26:52;;;;;;;14.05;8.75;;;19.60;58.30;;;;;;4975500;28;20078;-59
2022/12/02 00:29:19;;;;;;;15.20;9.27;;;19.60;58.20;;;;;;4975482;28;20129;-59
2022/12/02 00:31:44;;;;;;;16.85;9.57;;;19.60;58.20;;;;;;4975062;28;20042;-59
2022/12/02 00:34:10;;;;;;;15.13;8.95;;;19.60;58.10;;;;;;4975405;28;20093;-59
2022/12/02 00:36:35;;;;;;;15.02;9.25;;;19.60;58.10;;;;;;4975645;28;20109;-59
2022/12/02 00:39:01;;;;;;;14.23;9.18;;;19.60;58.10;;;;;;4974981;28;20122;-59
2022/12/02 00:41:26;;;;;;;16.10;9.43;;;19.60;58.10;;;;;;4974906;28;20164;-59
2022/12/02 00:46:36;;;;;;;14.73;9.18;;;19.50;58.00;;;;;;4974845;28;20087;-59
2022/12/02 00:49:10;;;;;;;13.38;8.20;;;19.50;58.00;;;;;;4974062;28;20070;-59
2022/12/02 00:51:36;;;;;;;15.05;8.95;;;19.50;58.00;;;;;;4975426;28;20047;-59
2022/12/02 00:54:02;;;;;;;14.65;8.85;;;19.50;57.90;;;;;;4974383;28;20181;-59
2022/12/02 00:56:28;;;;;;;15.50;8.45;;;19.50;57.90;;;;;;4974781;28;20509;-59
2022/12/02 00:58:53;;;;;;;14.80;9.32;;;19.50;57.80;;;;;;4974660;28;20038;-59
2022/12/02 01:01:19;;;;;;;13.50;8.82;;;19.50;57.80;;;;;;4975066;28;20479;-59
2022/12/02 01:03:45;;;;;;;15.65;8.57;;;19.50;57.80;;;;;;4975115;28;20043;-59
2022/12/02 01:06:10;;;;;;;13.82;8.15;;;19.50;57.80;;;;;;4974209;28;20126;-59
2022/12/02 01:08:36;;;;;;;14.35;8.35;;;19.50;57.70;;;;;;4974874;28;20043;-59
2022/12/02 01:11:01;;;;;;;14.45;9.13;;;19.40;57.70;;;;;;4973621;28;20053;-59
2022/12/02 01:13:27;;;;;;;14.27;8.32;;;19.50;57.70;;;;;;4973969;28;20133;-59
2022/12/02 01:15:53;;;;;;;13.38;8.48;;;19.40;57.60;;;;;;4975133;28;20422;-59
2022/12/02 01:18:18;;;;;;;16.15;8.45;;;19.40;57.70;;;;;;4974606;28;20138;-59
2022/12/02 01:20:44;;;;;;;12.52;8.40;;;19.40;57.60;;;;;;4974165;28;20471;-59
2022/12/02 01:23:10;;;;;;;13.48;8.23;;;19.40;57.60;;;;;;4974255;28;20051;-59
2022/12/02 01:25:35;;;;;;;13.60;8.30;;;19.40;57.60;;;;;;4974854;28;20040;-59
2022/12/02 01:28:01;;;;;;;12.30;7.75;;;19.40;57.50;;;;;;4972699;28;20113;-59
2022/12/02 01:30:26;;;;;;;13.25;8.18;;;19.40;57.50;;;;;;4974429;28;20074;-59
2022/12/02 01:32:52;;;;;;;13.63;8.45;;;19.40;57.50;;;;;;4974656;28;20490;-59
2022/12/02 01:35:19;;;;;;;12.25;7.80;;;19.30;57.50;;;;;;4973289;28;20045;-60
2022/12/02 01:37:44;;;;;;;12.20;7.68;;;19.40;57.50;;;;;;4974099;28;20045;-59
2022/12/02 01:40:10;;;;;;;12.63;7.80;;;19.40;57.50;;;;;;4974140;28;20039;-59
2022/12/02 01:42:36;;;;;;;13.55;8.18;;;19.40;57.50;;;;;;4972267;28;20054;-59
2022/12/02 01:45:02;;;;;;;13.13;8.00;;;19.30;57.40;;;;;;4974439;28;20042;-59
2022/12/02 01:47:28;;;;;;;12.25;7.95;;;19.30;57.40;;;;;;4973978;28;20507;-59
2022/12/02 01:49:53;;;;;;;12.25;7.88;;;19.30;57.40;;;;;;4973567;28;20098;-59
2022/12/02 01:52:19;;;;;;;13.82;7.93;;;19.30;57.30;;;;;;4973695;28;20058;-59
2022/12/02 01:54:44;;;;;;;12.98;8.05;;;19.30;57.30;;;;;;4973061;28;20042;-59
2022/12/02 01:57:11;;;;;;;12.90;7.95;;;19.30;57.20;;;;;;4973038;28;20039;-59
2022/12/02 01:59:38;;;;;;;13.23;7.50;;;19.30;57.20;;;;;;4973214;28;20093;-59
2022/12/02 02:02:29;;;;;;;12.43;7.53;;;19.30;57.20;;;;;;4972379;28;20130;-59
2022/12/02 02:04:56;;;;;;;11.90;7.38;;;19.30;57.20;;;;;;4973875;28;20089;-59
2022/12/02 02:07:22;;;;;;;13.70;7.83;;;19.20;57.20;;;;;;4956559;28;20059;-59
2022/12/02 02:09:47;;;;;;;12.88;7.47;;;19.20;57.20;;;;;;4973457;28;20035;-59
2022/12/02 02:12:13;;;;;;;12.25;7.38;;;19.20;57.20;;;;;;4956173;28;20046;-59
2022/12/02 02:14:38;;;;;;;11.60;6.88;;;19.20;57.20;;;;;;4972956;28;20046;-59
2022/12/02 02:17:04;;;;;;;12.65;7.15;;;19.20;57.20;;;;;;4973370;28;20487;-59
2022/12/02 02:19:29;;;;;;;11.75;6.88;;;19.20;57.20;;;;;;4972132;28;20493;-59
2022/12/02 02:21:55;;;;;;;10.98;7.10;;;19.20;57.20;;;;;;4972821;28;20043;-59
2022/12/02 02:24:20;;;;;;;13.35;7.78;;;19.20;57.20;;;;;;4971905;28;20058;-59
2022/12/02 02:26:46;;;;;;;10.93;6.63;;;19.20;57.10;;;;;;4973894;28;20050;-59
2022/12/02 02:29:12;;;;;;;12.13;7.32;;;19.20;57.10;;;;;;4973179;28;20054;-58
2022/12/02 02:31:37;;;;;;;11.43;6.80;;;19.20;57.10;;;;;;4972764;28;20487;-58
2022/12/02 02:34:03;;;;;;;11.00;7.20;;;19.20;57.10;;;;;;4973680;28;20039;-58
2022/12/02 02:36:29;;;;;;;12.27;6.82;;;19.10;57.00;;;;;;4972352;28;20057;-58
2022/12/02 02:38:54;;;;;;;12.32;7.30;;;19.10;57.00;;;;;;4972926;28;20050;-58
2022/12/02 02:41:20;;;;;;;11.52;7.10;;;19.10;57.00;;;;;;4972875;28;20133;-59
2022/12/02 02:43:45;;;;;;;12.52;6.57;;;19.10;57.00;;;;;;4971652;28;20161;-58
2022/12/02 02:46:11;;;;;;;12.70;6.95;;;19.10;56.90;;;;;;4971976;28;20050;-58
2022/12/02 02:48:36;;;;;;;10.68;6.80;;;19.10;56.90;;;;;;4971456;28;20046;-58
2022/12/02 02:51:02;;;;;;;11.43;6.85;;;19.10;56.90;;;;;;4975546;28;20050;-58
2022/12/02 02:53:28;;;;;;;10.95;6.40;;;19.10;57.00;;;;;;4957862;28;20443;-58
2022/12/02 02:55:53;;;;;;;11.82;6.45;;;19.10;56.90;;;;;;4976235;28;20125;-58
2022/12/02 02:58:21;;;;;;;12.35;7.28;;;19.10;56.90;;;;;;4973729;28;20047;-58
2022/12/02 03:00:53;;;;;;;11.32;6.40;;;19.00;56.90;;;;;;4976331;28;20043;-58
2022/12/02 03:03:20;;;;;;;11.30;6.85;;;19.00;56.80;;;;;;4958229;28;20061;-58
2022/12/02 03:05:45;;;;;;;10.68;6.50;;;19.10;56.90;;;;;;4973958;28;20042;-58
2022/12/02 03:08:11;;;;;;;11.60;6.65;;;19.00;56.80;;;;;;4958645;28;20055;-59
2022/12/02 03:10:36;;;;;;;11.02;6.80;;;19.00;56.80;;;;;;4974410;28;20042;-58
2022/12/02 03:13:02;;;;;;;11.57;6.53;;;19.00;56.80;;;;;;4973874;28;20129;-58
2022/12/02 03:15:28;;;;;;;10.70;6.53;;;19.00;56.70;;;;;;4974466;28;20042;-58
2022/12/02 03:17:53;;;;;;;11.82;6.00;;;19.00;56.70;;;;;;4974837;28;20557;-58
2022/12/02 03:20:20;;;;;;;11.63;6.63;;;19.00;56.60;;;;;;4973480;28;20122;-58
2022/12/02 03:22:45;;;;;;;12.60;6.95;;;19.00;56.60;;;;;;4975855;28;20049;-58
2022/12/02 03:25:11;;;;;;;11.30;6.57;;;19.00;56.60;;;;;;4975333;28;20046;-58
2022/12/02 03:27:36;;;;;;;10.55;6.35;;;19.00;56.50;;;;;;4975049;28;20043;-58
2022/12/02 03:30:02;;;;;;;11.63;6.53;;;19.00;56.50;;;;;;4975893;28;20097;-58
2022/12/02 03:32:28;;;;;;;9.38;6.32;;;19.00;56.40;;;;;;4975103;28;20889;-58
2022/12/02 03:34:53;;;;;;;11.13;6.22;;;19.00;56.40;;;;;;4974786;28;20039;-58
2022/12/02 03:37:19;;;;;;;11.93;6.60;;;19.00;56.30;;;;;;4974999;28;20509;-59
2022/12/02 03:39:44;;;;;;;12.05;6.15;;;19.00;56.30;;;;;;4958177;28;20043;-59
2022/12/02 03:42:10;;;;;;;11.75;6.18;;;19.00;56.30;;;;;;4937975;28;1044609;-59
2022/12/02 03:44:36;;;;;;;11.27;6.68;;;19.00;56.30;;;;;;4976480;28;20051;-59
2022/12/02 03:47:01;;;;;;;10.35;6.38;;;19.00;56.30;;;;;;4959250;28;20051;-59
2022/12/02 03:49:27;;;;;;;11.45;6.55;;;19.00;56.20;;;;;;4974379;28;20054;-59
2022/12/02 03:51:52;;;;;;;11.75;6.88;;;19.00;56.20;;;;;;4975191;28;20054;-59
2022/12/02 03:54:18;;;;;;;9.40;6.10;;;19.00;56.20;;;;;;4976293;28;20046;-59
2022/12/02 03:56:43;;;;;;;10.10;5.97;;;19.00;56.80;;;;;;4974356;28;20054;-59
2022/12/02 03:59:09;;;;;;;10.30;6.25;;;19.00;56.10;;;;;;4975050;28;20046;-59
2022/12/02 04:01:35;;;;;;;9.88;5.63;;;19.00;56.70;;;;;;4975363;28;20053;-59
2022/12/02 04:04:01;;;;;;;11.30;6.10;;;19.00;56.00;;;;;;4976258;28;20030;-59
2022/12/02 04:06:26;;;;;;;11.07;6.18;;;19.00;56.00;;;;;;4976157;28;20378;-59
2022/12/02 04:08:52;;;;;;;10.52;6.28;;;19.00;56.00;;;;;;4975687;28;20101;-59
2022/12/02 04:11:17;;;;;;;9.88;6.18;;;19.00;56.00;;;;;;4975594;28;20039;-59
2022/12/02 04:13:43;;;;;;;10.00;5.75;;;19.00;56.00;;;;;;4975936;28;20059;-59
2022/12/02 04:16:08;;;;;;;9.50;5.68;;;19.00;56.00;;;;;;4975273;28;20540;-58
2022/12/02 04:18:34;;;;;;;12.85;6.40;;;19.00;56.00;;;;;;4975878;28;20498;-58
2022/12/02 04:20:59;;;;;;;11.27;5.97;;;19.00;56.00;;;;;;4975595;28;20085;-59
2022/12/02 04:23:25;;;;;;;11.20;6.13;;;19.00;56.00;;;;;;4975036;28;20577;-58
2022/12/02 04:25:50;;;;;;;10.15;6.20;;;19.00;56.00;;;;;;4975996;28;20042;-58
2022/12/02 04:28:16;;;;;;;10.30;6.07;;;19.00;55.90;;;;;;4975482;28;20046;-58
2022/12/02 04:30:41;;;;;;;9.38;5.70;;;19.00;55.90;;;;;;4975098;28;20134;-58
2022/12/02 04:33:07;;;;;;;9.40;5.60;;;19.00;55.90;;;;;;4975764;28;20066;-58
2022/12/02 04:35:32;;;;;;;9.70;5.78;;;19.10;55.90;;;;;;4975276;28;20043;-58
2022/12/02 04:37:58;;;;;;;10.07;5.88;;;19.10;55.80;;;;;;4974849;28;20051;-58
2022/12/02 04:40:23;;;;;;;9.93;5.55;;;19.10;55.90;;;;;;4975555;28;20043;-58
2022/12/02 04:42:49;;;;;;;9.57;5.85;;;19.10;55.80;;;;;;4975328;28;20582;-58
2022/12/02 04:45:14;;;;;;;9.45;5.93;;;19.10;55.80;;;;;;4974199;28;20510;-58
2022/12/02 04:47:40;;;;;;;12.13;6.22;;;19.10;55.80;;;;;;4975618;28;20047;-58
2022/12/02 04:50:06;;;;;;;8.60;5.32;;;19.10;55.80;;;;;;4975566;28;20082;-58
2022/12/02 04:52:32;;;;;;;9.98;5.90;;;19.20;55.80;;;;;;4974434;28;20047;-58
2022/12/02 04:54:57;;;;;;;10.38;5.78;;;19.20;55.80;;;;;;4975329;28;20394;-58
2022/12/02 04:57:23;;;;;;;10.82;5.72;;;19.20;55.80;;;;;;4974667;28;20474;-58
2022/12/02 04:59:48;;;;;;;9.40;5.82;;;19.20;55.80;;;;;;4974453;28;20097;-59
2022/12/02 05:02:14;;;;;;;11.82;6.50;;;19.20;55.80;;;;;;4974718;28;20043;-58
2022/12/02 05:04:39;;;;;;;10.35;5.85;;;19.20;55.80;;;;;;4974394;28;20046;-59
2022/12/02 05:07:05;;;;;;;9.23;5.50;;;19.30;55.80;;;;;;4974193;28;20043;-59
2022/12/02 05:09:30;;;;;;;10.45;5.35;;;19.30;55.80;;;;;;4974660;28;20072;-59
2022/12/02 05:11:56;;;;;;;10.43;5.68;;;19.30;55.80;;;;;;4973516;28;20050;-59
2022/12/02 05:14:21;;;;;;;9.27;5.82;;;19.30;55.80;;;;;;4972974;28;20051;-58
2022/12/02 05:16:47;;;;;;;10.77;5.88;;;19.30;55.80;;;;;;4975022;28;20038;-58
2022/12/02 05:19:12;;;;;;;10.98;5.90;;;19.30;55.70;;;;;;4973930;28;20086;-58
2022/12/02 05:21:38;;;;;;;12.88;5.85;;;19.30;55.70;;;;;;4974638;28;20126;-58
2022/12/02 05:24:04;;;;;;;10.63;5.65;;;19.30;55.70;;;;;;4975041;28;20181;-58
2022/12/02 05:26:30;;;;;;;9.30;5.82;;;19.40;55.80;;;;;;4973488;28;20438;-58
2022/12/02 05:28:55;;;;;;;11.90;5.95;;;19.40;55.80;;;;;;4974418;28;20058;-58
2022/12/02 05:31:21;;;;;;;9.80;4.97;;;19.40;55.70;;;;;;4974165;28;20054;-58
2022/12/02 05:33:46;;;;;;;8.95;5.53;;;19.40;55.70;;;;;;4973798;28;20047;-58
2022/12/02 05:36:12;;;;;;;10.07;6.05;;;19.40;55.70;;;;;;4974315;28;20039;-59
2022/12/02 05:38:38;;;;;;;9.75;5.38;;;19.40;55.70;;;;;;4974508;28;20064;-59
2022/12/02 05:41:04;;;;;;;8.32;4.90;;;19.40;55.70;;;;;;4973413;28;20084;-59
2022/12/02 05:43:32;;;;;;;12.02;6.05;;;19.40;55.70;;;;;;4973597;28;20043;-59
2022/12/02 05:45:58;;;;;;;10.65;6.13;;;19.40;55.60;;;;;;4957504;28;20101;-59
2022/12/02 05:48:24;;;;;;;10.25;5.57;;;19.50;55.80;;;;;;4973210;28;20046;-59
2022/12/02 05:50:49;;;;;;;10.63;5.60;;;19.40;55.60;;;;;;4972875;28;20039;-59
2022/12/02 05:53:22;;;;;;;11.02;5.57;;;19.50;55.60;;;;;;4972327;28;20419;-58
2022/12/02 05:55:49;;;;;;;11.07;5.72;;;19.50;55.60;;;;;;4972959;28;20070;-59
2022/12/02 05:58:14;;;;;;;8.85;5.20;;;19.50;55.60;;;;;;4973563;28;20375;-59
2022/12/02 06:00:40;;;;;;;10.13;6.03;;;19.50;55.60;;;;;;4956628;28;20097;-59
2022/12/02 06:03:07;;;;;;;10.93;5.45;;;19.50;55.60;;;;;;4973158;28;20043;-59
2022/12/02 06:05:37;;;;;;;10.27;5.50;;;19.50;55.60;;;;;;4973576;28;20101;-59
2022/12/02 06:08:19;;;;;;;10.18;5.53;;;19.60;55.60;;;;;;4974042;28;20039;-59
2022/12/02 06:11:10;;;;;;;10.70;5.65;;;19.50;55.60;;;;;;4973758;28;20062;-59
2022/12/02 06:13:36;;;;;;;8.57;5.07;;;19.60;55.60;;;;;;4972275;28;20498;-59
2022/12/02 06:16:03;;;;;;;11.57;6.32;;;19.60;55.60;;;;;;4972939;28;20113;-59
2022/12/02 06:18:31;;;;;;;8.88;5.30;;;19.60;55.60;;;;;;4956443;28;20054;-59
2022/12/02 06:20:58;;;;;;;11.40;5.60;;;19.60;55.60;;;;;;4973625;28;20130;-59
2022/12/02 06:23:25;;;;;;;10.18;5.45;;;19.60;55.50;;;;;;4972016;28;20078;-59
2022/12/02 06:25:50;;;;;;;9.93;5.68;;;19.70;55.50;;;;;;4972447;28;20053;-59
2022/12/02 06:28:22;;;;;;;12.07;6.35;;;19.60;55.50;;;;;;4973419;28;20050;-59
2022/12/02 06:30:47;;;;;;;9.75;5.13;;;19.60;55.50;;;;;;4973002;28;20537;-59
2022/12/02 06:33:25;;;;;;;11.57;5.60;;;19.60;55.50;;;;;;4973257;28;20047;-59
2022/12/02 06:35:52;;;;;;;8.73;5.43;;;19.70;55.50;;;;;;4973739;28;20085;-59
2022/12/02 06:38:33;;;;;;;11.23;6.13;;;19.70;55.50;;;;;;4971091;28;20404;-59
2022/12/02 06:40:59;;;;;;;11.05;5.68;;;19.70;55.40;;;;;;4972559;28;20222;-59
2022/12/02 06:43:28;;;;;;;11.73;5.93;;;19.70;55.40;;;;;;4972465;28;20569;-59
2022/12/02 06:45:54;;;;;;;11.38;5.65;;;19.70;55.40;;;;;;4973212;28;20109;-58
2022/12/02 06:48:25;;;;;;;9.73;5.40;;;19.80;55.40;;;;;;4973190;28;20499;-58
2022/12/02 06:50:50;;;;;;;9.55;5.75;;;19.70;55.30;;;;;;4972696;28;20051;-58
2022/12/02 06:53:25;;;;;;;10.23;5.47;;;19.70;55.60;;;;;;4973142;28;20101;-59
2022/12/02 06:56:14;;;;;;;11.10;6.10;;;19.70;56.10;;;;;;4973422;28;20055;-58
2022/12/02 06:58:41;;;;;;;9.98;5.93;;;19.80;55.40;;;;;;4971637;28;20042;-59
2022/12/02 07:01:09;;;;;;;10.25;5.68;;;19.70;56.00;;;;;;4973393;28;20050;-60
2022/12/02 07:03:36;;;;;;;10.50;5.68;;;19.80;55.30;;;;;;4973471;28;20050;-59
2022/12/02 07:06:19;;;;;;;8.88;5.60;;;19.80;55.30;;;;;;4971501;28;20098;-58
2022/12/02 07:08:45;;;;;;;11.45;5.85;;;19.80;55.30;;;;;;4973623;28;20102;-59
2022/12/02 07:11:50;;;;;;;13.80;6.55;;;19.80;55.30;;;;;;4971805;28;20043;-59
2022/12/02 07:14:40;;;;;;;12.60;5.88;;;19.80;55.30;;;;;;4973228;28;20047;-59
2022/12/02 07:17:19;;;;;;;10.77;5.95;;;19.80;55.30;;;;;;4973455;28;20039;-58
2022/12/02 07:19:45;;;;;;;10.73;5.72;;;19.80;55.30;;;;;;4971634;28;20070;-58
2022/12/02 07:22:16;;;;;;;10.50;5.90;;;19.80;55.30;;;;;;4973097;28;20043;-59
2022/12/02 07:24:42;;;;;;;12.00;5.90;;;19.80;56.00;;;;;;4973489;28;20047;-59
2022/12/02 07:27:17;;;;;;;10.00;5.60;;;19.80;55.30;;;;;;4955060;28;20053;-59
2022/12/02 07:29:43;;;;;;;12.57;6.07;;;19.80;55.30;;;;;;4972214;28;20058;-59
2022/12/02 07:32:08;;;;;;;11.43;6.32;;;19.90;55.40;;;;;;4973234;28;20047;-58
2022/12/02 07:34:34;;;;;;;11.48;5.72;;;19.80;55.30;;;;;;4972545;28;20047;-59
2022/12/02 07:36:59;;;;;;;11.15;5.85;;;19.90;55.40;;;;;;4983557;28;20448;-58
2022/12/02 07:39:25;;;;;;;14.30;6.18;;;19.90;55.40;;;;;;4986735;28;20464;-59
2022/12/02 07:41:50;;;;;;;11.18;6.07;;;19.90;55.40;;;;;;4983901;28;20078;-58
2022/12/02 07:44:16;;;;;;;11.13;6.18;;;19.90;55.50;;;;;;4983945;28;20458;-58
2022/12/02 07:46:41;;;;;;;11.32;6.47;;;19.90;55.60;;;;;;4975810;28;20042;-58
2022/12/02 07:49:07;;;;;;;15.00;6.43;;;19.90;55.70;;;;;;4976675;28;20072;-57
2022/12/02 07:51:32;;;;;;;10.45;5.82;;;19.90;55.90;;;;;;4975811;28;20046;-57
2022/12/02 07:53:58;;;;;;;11.18;6.55;;;20.00;56.10;;;;;;4975474;28;20058;-57
2022/12/02 07:56:23;;;;;;;12.00;6.57;;;20.00;56.30;;;;;;4976164;28;20045;-57
2022/12/02 07:58:49;;;;;;;11.00;5.85;;;20.00;56.40;;;;;;4976435;28;20129;-58
2022/12/02 08:01:15;;;;;;;14.52;5.95;;;20.00;56.50;;;;;;4975148;28;20494;-57
2022/12/02 08:03:41;;;;;;;15.23;6.97;;;20.00;56.60;;;;;;4976385;28;20058;-57
2022/12/02 08:06:07;;;;;;;11.90;5.78;;;20.00;57.30;;;;;;4975195;28;20047;-58
2022/12/02 08:08:32;;;;;;;12.40;6.47;;;20.10;56.80;;;;;;4975251;28;20042;-58
2022/12/02 08:10:58;;;;;;;12.38;5.95;;;20.00;56.70;;;;;;4976240;28;20046;-58
2022/12/02 08:13:23;;;;;;;12.25;6.03;;;20.00;56.80;;;;;;4975670;28;20403;-58
2022/12/02 08:15:49;;;;;;;11.50;5.97;;;20.10;56.90;;;;;;4975606;28;20483;-58
2022/12/02 08:18:14;;;;;;;11.32;5.90;;;20.10;56.90;;;;;;4975670;28;20479;-58
2022/12/02 08:20:40;;;;;;;10.77;6.05;;;20.10;57.00;;;;;;4976163;28;20043;-58
2022/12/02 08:23:06;;;;;;;13.60;7.28;;;20.10;57.00;;;;;;4974780;28;20049;-58
2022/12/02 08:25:31;;;;;;;11.73;6.63;;;20.10;56.90;;;;;;4975564;28;20039;-58
2022/12/02 08:27:57;;;;;;;11.10;6.13;;;20.10;56.90;;;;;;4975866;28;20352;-57
2022/12/02 08:30:22;;;;;;;10.15;5.55;;;20.10;57.00;;;;;;4974748;28;20051;-58
2022/12/02 08:32:48;;;;;;;12.50;6.43;;;20.20;57.10;;;;;;4978215;28;20062;-57
2022/12/02 08:35:14;;;;;;;11.95;6.60;;;20.10;57.00;;;;;;4975395;28;20047;-59
2022/12/02 08:37:39;;;;;;;12.70;6.88;;;20.20;57.10;;;;;;4974670;28;20057;-58
2022/12/02 08:40:05;;;;;;;11.60;6.47;;;20.20;57.10;;;;;;4975548;28;20128;-59
2022/12/02 08:42:31;;;;;;;13.13;6.40;;;20.20;56.90;;;;;;4974911;28;20450;-61
2022/12/02 08:44:56;;;;;;;11.10;6.45;;;20.20;56.80;;;;;;4955177;28;20047;-59
2022/12/02 08:47:22;;;;;;;13.82;7.18;;;20.20;56.80;;;;;;4953993;28;20035;-58
2022/12/02 08:49:49;;;;;;;13.27;6.80;;;20.20;56.60;;;;;;4955247;28;20091;-59
2022/12/02 08:52:14;;;;;;;12.52;6.50;;;20.20;56.60;;;;;;4954126;28;20398;-59
2022/12/02 08:54:42;;;;;;;13.75;7.13;;;20.20;56.60;;;;;;4957853;28;20471;-59
2022/12/02 08:57:08;;;;;;;12.73;6.97;;;20.20;56.60;;;;;;4954503;28;20050;-58
2022/12/02 08:59:34;;;;;;;12.10;6.53;;;20.20;56.70;;;;;;4955217;28;20047;-58
2022/12/02 09:01:59;;;;;;;12.30;6.75;;;20.20;56.60;;;;;;4955628;28;20122;-58
2022/12/02 09:04:25;;;;;;;12.98;7.15;;;20.10;56.50;;;;;;4956869;28;20159;-58
2022/12/02 09:06:50;;;;;;;15.82;7.53;;;20.20;56.60;;;;;;4954988;28;20117;-58
2022/12/02 09:09:16;;;;;;;13.30;7.13;;;20.10;56.40;;;;;;4954932;28;20039;-58
2022/12/02 09:11:41;;;;;;;14.40;7.45;;;20.20;56.50;;;;;;4958045;28;20054;-58
2022/12/02 09:14:07;;;;;;;14.45;7.60;;;20.10;56.40;;;;;;4974164;28;20078;-58
2022/12/02 09:16:32;;;;;;;13.07;7.05;;;20.10;57.10;;;;;;4974590;28;20085;-58
2022/12/02 09:18:58;;;;;;;12.98;6.88;;;20.10;56.40;;;;;;4973551;28;20083;-58
2022/12/02 09:21:24;;;;;;;16.13;7.53;;;20.10;56.40;;;;;;4974388;28;20042;-57
2022/12/02 09:23:49;;;;;;;16.40;7.63;;;20.10;56.30;;;;;;4974844;28;20598;-58
2022/12/02 09:26:17;;;;;;;13.25;6.90;;;20.10;56.40;;;;;;4973659;28;20058;-58
2022/12/02 09:28:43;;;;;;;;;;;20.10;56.30;;;;;;4975208;28;20355;-58
2022/12/02 09:31:08;;;;;;;15.23;7.70;;;20.10;56.20;;;;;;4974410;28;20409;-58
2022/12/02 09:33:34;;;;;;;13.88;6.97;;;20.00;56.30;;;;;;4973687;28;20043;-58
2022/12/02 09:35:59;;;;;;;13.93;7.03;;;20.00;56.30;;;;;;4974016;28;20046;-58
2022/12/02 09:38:29;;;;;;;12.98;6.90;;;20.10;56.40;;;;;;4974246;28;20046;-58
2022/12/02 09:40:56;;;;;;;14.52;7.57;;;20.10;56.40;;;;;;4973113;28;20109;-58
2022/12/02 09:43:21;;;;;;;15.55;8.00;;;20.10;56.40;;;;;;4974074;28;20054;-58
2022/12/02 09:45:47;;;;;;;14.30;7.72;;;20.10;56.50;;;;;;4957947;28;20403;-58
2022/12/02 09:48:12;;;;;;;16.25;8.07;;;20.10;56.30;;;;;;4971783;28;20054;-58
2022/12/02 09:50:39;;;;;;;12.70;6.97;;;20.20;56.30;;;;;;4973036;28;20043;-58
2022/12/02 09:53:05;;;;;;;14.43;7.70;;;20.10;56.20;;;;;;4973668;28;20045;-58
2022/12/02 09:55:31;;;;;;;12.88;7.78;;;20.10;56.20;;;;;;4955161;28;20419;-58
2022/12/02 09:58:04;;;;;;;14.75;8.05;;;20.10;56.10;;;;;;4972403;28;20066;-58
2022/12/02 10:00:30;;;;;;;14.45;7.85;;;20.10;56.10;;;;;;4971854;28;20093;-58
2022/12/02 10:02:55;;;;;;;13.82;7.38;;;20.10;56.10;;;;;;4974389;28;20051;-58
2022/12/02 10:05:22;;;;;;;14.20;7.25;;;20.10;56.00;;;;;;4973706;28;20081;-58
2022/12/02 10:07:49;;;;;;;15.55;8.13;;;20.10;56.00;;;;;;4972137;28;20050;-58
2022/12/02 10:10:17;;;;;;;14.98;7.78;;;20.10;55.90;;;;;;4972009;28;20045;-58
2022/12/02 10:12:43;;;;;;;13.27;7.32;;;20.10;55.90;;;;;;4972506;28;20101;-58
2022/12/02 10:15:11;;;;;;;15.43;7.80;;;20.10;55.80;;;;;;4973236;28;20126;-58
2022/12/02 10:17:37;;;;;;;13.63;7.30;;;20.00;55.70;;;;;;4973805;28;20070;-58
2022/12/02 10:20:02;;;;;;;14.43;7.75;;;20.10;55.50;;;;;;4978983;28;20051;-58
2022/12/02 10:22:28;;;;;;;15.15;8.38;;;20.10;55.40;;;;;;4973537;28;20109;-58
2022/12/02 10:24:54;;;;;;;14.57;7.95;;;20.00;55.40;;;;;;4973941;28;20503;-58
2022/12/02 10:27:30;;;;;;;14.88;7.85;;;20.00;55.30;;;;;;4973178;28;20483;-58
2022/12/02 10:30:15;;;;;;;15.70;8.15;;;20.10;55.40;;;;;;4972600;28;20113;-59
2022/12/02 10:32:40;;;;;;;12.63;6.78;;;20.10;55.60;;;;;;4973418;28;20517;-59
2022/12/02 10:35:08;;;;;;;14.90;8.45;;;20.00;55.50;;;;;;4973460;28;20047;-59
2022/12/02 10:37:34;;;;;;;;;;;20.10;55.60;;;;;;4973542;28;20069;-59
2022/12/02 10:40:20;;;;;;;17.75;7.60;;;20.10;55.70;;;;;;4980928;28;20008;-59
2022/12/02 10:42:45;;;;;;;13.48;7.22;;;20.10;55.70;;;;;;4981562;28;20058;-59
2022/12/02 10:45:22;;;;;;;12.52;7.18;;;20.10;55.80;;;;;;4981646;28;20050;-59
2022/12/02 10:47:48;;;;;;;13.15;7.30;;;20.10;55.90;;;;;;4981651;28;20426;-59
2022/12/02 10:50:21;;;;;;;13.98;7.47;;;20.10;55.90;;;;;;4982438;28;20515;-59
2022/12/02 10:52:52;;;;;;;15.50;8.10;;;20.10;56.00;;;;;;4983838;28;20474;-59
2022/12/02 10:55:18;;;;;;;13.75;7.13;;;20.10;56.00;;;;;;4980428;28;20395;-58
2022/12/02 10:57:44;;;;;;;14.52;7.88;;;20.10;56.00;;;;;;4980845;28;20509;-58
2022/12/02 11:00:15;;;;;;;15.90;7.93;;;20.10;56.10;;;;;;4978907;28;20078;-58
2022/12/02 11:02:52;;;;;;;15.57;8.88;;;20.10;56.10;;;;;;4973202;28;20054;-58
2022/12/02 11:05:25;;;;;;;15.50;8.43;;;20.10;56.00;;;;;;4971118;28;20050;-58
2022/12/02 11:07:56;;;;;;;15.98;8.48;;;20.10;56.00;;;;;;4971814;28;20051;-59
2022/12/02 11:10:24;;;;;;;15.55;8.38;;;20.10;55.90;;;;;;4973505;28;20096;-59
2022/12/02 11:12:49;;;;;;;15.88;8.00;;;20.10;56.00;;;;;;4983142;28;20156;-59
2022/12/02 11:15:37;;;;;;;15.32;8.27;;;20.20;55.90;;;;;;4995776;28;20517;-59
2022/12/02 11:18:04;;;;;;;;;;;20.10;55.70;;;;;;4995974;28;20050;-59
2022/12/02 11:20:42;;;;;;;14.95;8.00;;;20.10;55.70;;;;;;4996052;28;19924;-59
2022/12/02 11:23:25;;;;;;;17.42;8.02;;;20.10;55.70;;;;;;4996516;28;20057;-59
2022/12/02 11:25:52;;;;;;;14.32;8.35;;;20.10;55.50;;;;;;4995405;28;20054;-59
2022/12/02 11:28:18;;;;;;;17.20;8.60;;;20.10;55.40;;;;;;4995798;28;20492;-59
2022/12/02 11:30:46;;;;;;;14.43;7.90;;;20.10;55.40;;;;;;4995013;28;20053;-59
2022/12/02 11:33:38;;;;;;;15.50;8.65;;;20.10;55.30;;;;;;4993968;28;20042;-59
2022/12/02 11:36:22;;;;;;;15.18;8.48;;;20.10;55.30;;;;;;4989741;28;20058;-58
2022/12/02 11:38:51;;;;;;;16.88;8.27;;;20.00;55.20;;;;;;4993411;28;20089;-59
2022/12/02 11:41:17;;;;;;;16.50;9.57;;;20.10;55.20;;;;;;4976115;28;20082;-59
2022/12/02 11:43:43;;;;;;;17.92;9.07;;;20.10;55.20;;;;;;4979329;28;20502;-58
2022/12/02 11:46:08;;;;;;;17.17;9.27;;;20.10;55.10;;;;;;4984054;28;20042;-58
2022/12/02 11:48:46;;;;;;;16.60;9.30;;;20.10;55.20;;;;;;4985402;28;20050;-58
2022/12/02 11:51:27;;;;;;;17.83;9.30;;;20.10;55.10;;;;;;4979366;28;20726;-59
2022/12/02 11:53:53;;;;;;;16.88;9.60;;;20.00;55.20;;;;;;4974692;28;20093;-59
2022/12/02 11:56:18;;;;;;;16.95;10.02;;;20.10;55.40;;;;;;4975714;28;20420;-59
2022/12/02 11:58:44;;;;;;;16.42;9.27;;;20.00;55.40;;;;;;4976115;28;20394;-59
2022/12/02 12:01:14;;;;;;;18.20;10.05;;;20.00;55.40;;;;;;4980223;28;20035;-60
2022/12/02 12:03:40;;;;;;;17.00;9.27;;;20.00;55.50;;;;;;4982193;28;20066;-59
2022/12/02 12:06:12;;;;;;;19.98;9.95;;;20.10;55.50;;;;;;4984652;28;20053;-59
2022/12/02 12:08:39;;;;;;;18.40;10.65;;;20.10;55.20;;;;;;4980879;28;20042;-59
2022/12/02 12:11:26;;;;;;;20.77;10.73;;;20.10;55.00;;;;;;4976004;28;20042;-59
2022/12/02 12:14:09;;;;;;;18.15;10.07;;;20.10;54.60;;;;;;4975906;28;20086;-59
2022/12/02 12:16:43;;;;;;;15.18;9.52;;;20.00;54.60;;;;;;4976240;28;20046;-59
2022/12/02 12:19:11;;;;;;;17.33;10.15;;;20.00;54.60;;;;;;4976195;28;20556;-59
2022/12/02 12:21:41;;;;;;;20.13;10.23;;;20.00;54.60;;;;;;4975079;28;20047;-59
2022/12/02 12:24:25;;;;;;;17.77;10.20;;;20.00;54.50;;;;;;4976119;28;20051;-59
2022/12/02 12:27:02;;;;;;;19.10;10.73;;;20.00;54.50;;;;;;4974691;28;20050;-59
2022/12/02 12:29:32;;;;;;;18.40;10.27;;;20.00;54.50;;;;;;4974934;28;20043;-59
2022/12/02 12:31:58;;;;;;;19.55;11.10;;;20.00;54.50;;;;;;4975617;28;20062;-59
2022/12/02 12:34:23;;;;;;;17.10;9.85;;;19.90;54.50;;;;;;4975740;28;20059;-59
2022/12/02 12:36:49;;;;;;;16.98;10.43;;;20.00;54.50;;;;;;4974942;28;20043;-59
2022/12/02 12:39:14;;;;;;;19.08;10.98;;;20.00;54.50;;;;;;4975483;28;20133;-59
2022/12/02 12:41:40;;;;;;;17.92;10.57;;;20.00;54.50;;;;;;4975451;28;20402;-59
2022/12/02 12:44:06;;;;;;;17.75;10.63;;;19.90;54.40;;;;;;4975021;28;20058;-59